Dati Storici

Data ora Umidita' aria (%) Temperatura aria (°C) Rad globale (W/m²) Gonioanemometro (°) Tacoanemometro (m/s) Pioggia (mm)
30-10-2012 20:10 68.4 % 8.438 3.609 22.731 0.317 0
30-10-2012 20:00 68.2 % 8.525 4.083 70.083 0.222 0
30-10-2012 19:50 69.3 % 8.306 3.814 326.37 0.004 0
30-10-2012 19:40 68.2 % 8.251 3.186 69.979 0.121 0
30-10-2012 19:30 68.3 % 8.289 3.622 26.848 0.452 0
30-10-2012 19:20 69.2 % 8.176 3.75 53.846 0.695 0
30-10-2012 19:10 70 % 8.057 3.289 76.03 0.595 0
30-10-2012 19:00 70.5 % 8.032 3.109 54.059 0.426 0
30-10-2012 18:50 72.9 % 7.945 2.584 29.097 0.791 0
30-10-2012 18:40 69.5 % 7.758 1.75 79.153 0.191 0
30-10-2012 18:30 68.4 % 8.016 1.442 67.679 0.332 0
30-10-2012 18:20 67 % 8.291 1.475 59.854 0.405 0
30-10-2012 18:10 65.6 % 8.424 2.116 71.74 0.712 0
30-10-2012 18:00 65.2 % 8.668 4.307 91.396 0.404 0
30-10-2012 17:50 64.1 % 8.817 8.007 87.289 0.433 0
30-10-2012 17:40 63.2 % 8.976 12.647 268.447 0.035 0
30-10-2012 17:30 61.5 % 9.355 18.977 71.134 0.451 0
30-10-2012 17:20 59.5 % 9.855 29.09 99.117 0.438 0
30-10-2012 17:10 59.4 % 10.148 68.947 43.861 0.717 0
30-10-2012 17:00 57.9 % 9.951 62.35 72.301 0.511 0

I dati sono presentati in modo automatico a scopo informativo. In seguito a verifica i dati possono subire modifiche o essere invalidati e non riportati negli archivi definitivi.